Time;durP1;ratioP1;P1;durP2;ratioP2;P2;SDS_P1;SDS_P2;PMS_P1;PMS_P2;Temp;Humidity;BMP_temperature;BMP_pressure;BME280_temperature;BME280_humidity;BME280_pressure;Samples;Min_cycle;Max_cycle;Signal;HPM_P1;HPM_P2
2022/07/22 00:01:50;;;;;;;9.38;1.55;;;19.40;99.30;;;;;;5034783;28;20024;-73
2022/07/22 00:04:16;;;;;;;10.88;1.58;;;19.40;99.00;;;;;;5035450;28;20025;-73
2022/07/22 00:06:42;;;;;;;7.05;1.10;;;19.40;99.00;;;;;;5035449;28;20465;-73
2022/07/22 00:09:08;;;;;;;4.43;0.85;;;19.30;99.10;;;;;;5035155;28;20037;-73
2022/07/22 00:11:33;;;;;;;7.90;1.13;;;19.40;99.30;;;;;;5035321;28;20075;-73
2022/07/22 00:13:59;;;;;;;4.18;1.10;;;19.40;99.30;;;;;;5035438;28;20025;-73
2022/07/22 00:16:25;;;;;;;8.05;1.25;;;19.50;99.30;;;;;;5035377;28;20028;-73
2022/07/22 00:18:50;;;;;;;5.47;1.00;;;19.50;99.30;;;;;;5035287;28;20507;-73
2022/07/22 00:21:16;;;;;;;9.60;1.40;;;19.60;99.30;;;;;;5035203;28;20018;-73
2022/07/22 00:23:42;;;;;;;7.72;1.05;;;19.60;99.20;;;;;;5035378;28;20021;-73
2022/07/22 00:26:07;;;;;;;9.50;1.52;;;19.70;99.20;;;;;;5035336;28;20034;-73
2022/07/22 00:28:33;;;;;;;6.68;1.08;;;19.70;98.90;;;;;;5035255;28;20381;-73
2022/07/22 00:30:58;;;;;;;6.30;1.20;;;19.70;98.80;;;;;;5034860;28;20056;-73
2022/07/22 00:33:24;;;;;;;6.00;1.20;;;19.70;98.70;;;;;;5035015;28;20025;-73
2022/07/22 00:35:50;;;;;;;6.28;1.27;;;19.70;98.70;;;;;;5034913;28;20472;-73
2022/07/22 00:38:15;;;;;;;5.95;1.48;;;19.70;98.70;;;;;;5035079;28;20037;-73
2022/07/22 00:40:41;;;;;;;11.90;1.63;;;19.80;98.70;;;;;;5034993;28;20519;-73
2022/07/22 00:43:07;;;;;;;7.03;1.27;;;19.70;98.30;;;;;;5034329;28;20065;-73
2022/07/22 00:45:32;;;;;;;7.85;1.83;;;19.60;98.30;;;;;;5034787;28;20033;-73
2022/07/22 00:47:58;;;;;;;7.55;1.23;;;19.70;98.40;;;;;;5034689;28;20022;-73
2022/07/22 00:50:24;;;;;;;5.45;1.25;;;19.70;98.40;;;;;;5034905;28;20108;-73
2022/07/22 00:52:50;;;;;;;6.13;1.17;;;19.70;98.40;;;;;;5034663;28;20424;-73
2022/07/22 00:55:15;;;;;;;6.13;1.10;;;19.70;98.40;;;;;;5034524;28;20063;-73
2022/07/22 00:57:42;;;;;;;8.25;1.30;;;19.70;98.30;;;;;;5034406;28;20052;-73
2022/07/22 01:00:12;;;;;;;5.35;1.00;;;19.80;98.30;;;;;;5034633;28;20029;-73
2022/07/22 01:02:38;;;;;;;8.32;1.33;;;19.80;98.20;;;;;;5034614;28;20362;-73
2022/07/22 01:05:05;;;;;;;6.43;1.27;;;19.80;98.20;;;;;;5034368;28;20032;-73
2022/07/22 01:07:31;;;;;;;6.15;1.40;;;19.80;98.20;;;;;;5034522;28;20025;-73
2022/07/22 01:09:57;;;;;;;4.68;1.23;;;19.80;98.10;;;;;;5034043;28;20034;-73
2022/07/22 01:12:23;;;;;;;4.93;1.30;;;19.80;98.10;;;;;;5034001;28;20040;-74
2022/07/22 01:14:49;;;;;;;4.53;1.00;;;19.80;98.10;;;;;;5034413;28;20024;-73
2022/07/22 01:17:14;;;;;;;5.47;0.95;;;19.80;98.00;;;;;;5033789;28;20032;-74
2022/07/22 01:19:40;;;;;;;5.80;0.93;;;19.80;98.00;;;;;;5033992;28;20388;-74
2022/07/22 01:22:06;;;;;;;7.38;1.05;;;19.80;97.90;;;;;;5034135;28;20045;-74
2022/07/22 01:24:32;;;;;;;6.00;1.00;;;19.90;97.90;;;;;;5034133;28;20056;-74
2022/07/22 01:26:58;;;;;;;3.35;1.00;;;19.90;97.80;;;;;;5034234;28;20033;-74
2022/07/22 01:29:24;;;;;;;7.40;0.93;;;19.90;97.80;;;;;;5034217;28;20108;-74
2022/07/22 01:31:49;;;;;;;9.00;1.85;;;19.90;97.70;;;;;;5033787;28;20113;-74
2022/07/22 01:34:15;;;;;;;4.35;1.20;;;20.00;97.70;;;;;;5033748;28;20484;-74
2022/07/22 01:36:41;;;;;;;5.07;1.27;;;20.00;97.70;;;;;;5033796;28;20140;-74
2022/07/22 01:39:07;;;;;;;6.30;1.25;;;20.00;97.80;;;;;;5034050;28;20033;-74
2022/07/22 01:41:32;;;;;;;9.25;1.50;;;19.90;97.70;;;;;;5033492;28;20028;-74
2022/07/22 01:43:58;;;;;;;5.13;1.25;;;19.90;97.80;;;;;;5033567;28;20129;-74
2022/07/22 01:46:24;;;;;;;5.57;1.17;;;19.90;97.80;;;;;;5033910;28;20483;-74
2022/07/22 01:48:51;;;;;;;5.07;1.33;;;19.90;97.70;;;;;;5033804;28;20025;-74
2022/07/22 01:51:17;;;;;;;6.43;1.17;;;19.90;97.50;;;;;;5033641;28;20066;-74
2022/07/22 01:53:43;;;;;;;5.03;1.17;;;19.90;97.30;;;;;;5033471;28;20033;-74
2022/07/22 01:56:08;;;;;;;9.43;1.65;;;19.90;97.30;;;;;;5033676;28;20021;-74
2022/07/22 01:58:34;;;;;;;10.13;1.75;;;19.80;97.50;;;;;;5033326;28;20025;-74
2022/07/22 02:00:59;;;;;;;6.40;1.08;;;19.80;97.40;;;;;;5033608;28;20113;-74
2022/07/22 02:03:25;;;;;;;5.75;1.35;;;19.80;97.50;;;;;;5033248;28;20333;-74
2022/07/22 02:05:51;;;;;;;3.33;0.95;;;19.80;97.40;;;;;;5033498;28;20022;-74
2022/07/22 02:08:16;;;;;;;8.05;1.33;;;19.80;97.20;;;;;;5033319;28;20025;-74
2022/07/22 02:10:43;;;;;;;7.28;1.55;;;19.80;97.20;;;;;;5033397;28;20076;-74
2022/07/22 02:13:09;;;;;;;8.63;1.83;;;19.70;97.20;;;;;;5033210;28;20465;-74
2022/07/22 02:15:34;;;;;;;6.60;1.23;;;19.70;97.10;;;;;;5033169;28;20076;-74
2022/07/22 02:18:00;;;;;;;6.63;1.20;;;19.70;97.10;;;;;;5033227;28;20063;-74
2022/07/22 02:20:25;;;;;;;6.00;1.10;;;19.70;97.20;;;;;;5033332;28;20025;-74
2022/07/22 02:22:51;;;;;;;6.10;1.05;;;19.80;97.20;;;;;;5033210;28;20022;-74
2022/07/22 02:25:17;;;;;;;5.93;0.93;;;19.70;97.20;;;;;;5032693;28;20040;-74
2022/07/22 02:27:42;;;;;;;4.40;1.45;;;19.70;97.20;;;;;;5033211;28;20076;-74
2022/07/22 02:30:09;;;;;;;3.30;1.08;;;19.70;97.10;;;;;;5032975;28;20032;-74
2022/07/22 02:32:35;;;;;;;6.28;1.65;;;19.70;97.00;;;;;;5033122;28;20488;-74
2022/07/22 02:35:01;;;;;;;5.45;1.35;;;19.70;96.80;;;;;;5032970;28;20029;-74
2022/07/22 02:37:27;;;;;;;6.90;1.55;;;19.70;96.70;;;;;;5033162;28;20022;-74
2022/07/22 02:39:52;;;;;;;6.97;1.20;;;19.60;96.70;;;;;;5032770;28;20484;-74
2022/07/22 02:42:18;;;;;;;6.82;1.52;;;19.60;96.80;;;;;;5032998;28;20017;-74
2022/07/22 02:44:43;;;;;;;5.70;1.45;;;19.60;96.90;;;;;;5032666;28;20053;-74
2022/07/22 02:47:09;;;;;;;5.30;1.35;;;19.60;96.90;;;;;;5033211;28;20025;-74
2022/07/22 02:49:34;;;;;;;4.68;1.10;;;19.60;96.90;;;;;;5032945;28;20433;-74
2022/07/22 02:52:00;;;;;;;5.85;1.73;;;19.60;96.80;;;;;;5032826;28;20025;-74
2022/07/22 02:54:26;;;;;;;6.13;1.30;;;19.60;96.70;;;;;;5032864;28;20047;-74
2022/07/22 02:56:51;;;;;;;6.88;1.38;;;19.60;96.70;;;;;;5033133;28;20022;-74
2022/07/22 02:59:17;;;;;;;4.20;1.50;;;19.50;96.60;;;;;;5032760;28;20424;-74
2022/07/22 03:01:43;;;;;;;4.18;1.13;;;19.40;96.70;;;;;;5032700;28;20025;-74
2022/07/22 03:04:08;;;;;;;7.13;1.27;;;19.40;96.80;;;;;;5032765;28;20029;-74
2022/07/22 03:06:34;;;;;;;4.28;0.95;;;19.40;97.00;;;;;;5032777;28;20112;-74
2022/07/22 03:08:59;;;;;;;8.65;1.35;;;19.40;97.00;;;;;;5033026;28;20021;-74
2022/07/22 03:11:25;;;;;;;5.22;1.45;;;19.50;97.00;;;;;;5032831;28;20461;-74
2022/07/22 03:13:51;;;;;;;4.30;1.05;;;19.50;97.00;;;;;;5032493;28;20477;-74
2022/07/22 03:16:16;;;;;;;4.60;1.38;;;19.50;97.00;;;;;;5032439;28;20025;-74
2022/07/22 03:18:42;;;;;;;3.03;0.98;;;19.50;97.10;;;;;;5032766;28;20037;-74
2022/07/22 03:21:07;;;;;;;4.38;1.38;;;19.60;97.10;;;;;;5032791;28;20376;-74
2022/07/22 03:23:33;;;;;;;9.50;1.80;;;19.70;97.00;;;;;;5032413;28;20380;-74
2022/07/22 03:25:58;;;;;;;4.65;1.00;;;19.70;96.80;;;;;;5032708;28;20056;-74
2022/07/22 03:28:24;;;;;;;4.35;0.70;;;19.60;96.80;;;;;;5032616;28;20513;-74
2022/07/22 03:30:50;;;;;;;5.43;1.50;;;19.60;97.00;;;;;;5032569;28;20033;-74
2022/07/22 03:33:15;;;;;;;6.53;1.17;;;19.70;96.90;;;;;;5032512;28;20040;-74
2022/07/22 03:35:41;;;;;;;4.90;1.00;;;19.70;96.90;;;;;;5034749;28;20021;-73
2022/07/22 03:38:07;;;;;;;4.55;1.17;;;19.70;96.80;;;;;;5036226;28;20026;-74
2022/07/22 03:40:32;;;;;;;4.22;1.13;;;19.80;96.80;;;;;;5036017;28;20034;-74
2022/07/22 03:42:58;;;;;;;6.03;1.55;;;19.80;96.70;;;;;;5035798;28;20051;-74
2022/07/22 03:45:23;;;;;;;4.95;1.52;;;19.80;96.60;;;;;;5036038;28;20030;-73
2022/07/22 03:47:49;;;;;;;7.03;1.73;;;19.80;96.40;;;;;;5036076;28;20017;-73
2022/07/22 03:50:15;;;;;;;3.83;1.23;;;19.70;96.40;;;;;;5036098;28;20163;-74
2022/07/22 03:52:40;;;;;;;5.22;1.40;;;19.60;96.50;;;;;;5035669;28;20018;-74
2022/07/22 03:55:07;;;;;;;7.13;1.20;;;19.50;96.50;;;;;;5035829;28;20030;-73
2022/07/22 03:57:32;;;;;;;7.07;1.90;;;19.40;96.70;;;;;;5035727;28;20034;-73
2022/07/22 03:59:58;;;;;;;5.18;1.67;;;19.40;96.80;;;;;;5035565;28;20120;-74
2022/07/22 04:02:24;;;;;;;6.72;1.50;;;19.20;97.10;;;;;;5035645;28;20468;-74
2022/07/22 04:04:49;;;;;;;6.63;1.48;;;19.10;97.40;;;;;;5035551;28;20025;-74
2022/07/22 04:07:15;;;;;;;8.00;1.55;;;19.10;97.50;;;;;;5035638;28;20385;-73
2022/07/22 04:09:40;;;;;;;7.47;2.15;;;19.10;97.50;;;;;;5035498;28;20072;-75
2022/07/22 04:12:06;;;;;;;6.30;1.83;;;19.10;97.70;;;;;;5035549;28;20029;-74
2022/07/22 04:14:32;;;;;;;6.13;1.77;;;19.00;97.90;;;;;;5035252;28;20026;-74
2022/07/22 04:16:57;;;;;;;5.00;1.27;;;19.00;98.00;;;;;;5035557;28;20136;-74
2022/07/22 04:19:23;;;;;;;5.70;2.03;;;19.00;98.00;;;;;;5035010;28;20037;-74
2022/07/22 04:21:49;;;;;;;6.40;2.00;;;19.00;98.00;;;;;;5035278;28;20018;-74
2022/07/22 04:24:14;;;;;;;5.63;1.67;;;19.00;98.10;;;;;;5035261;28;20037;-74
2022/07/22 04:26:40;;;;;;;3.72;1.67;;;18.90;98.20;;;;;;5035173;28;20025;-74
2022/07/22 04:29:06;;;;;;;5.50;2.15;;;18.90;98.30;;;;;;5035011;28;20083;-74
2022/07/22 04:31:32;;;;;;;8.07;2.78;;;18.90;98.30;;;;;;5035337;28;20067;-74
2022/07/22 04:33:58;;;;;;;6.68;2.45;;;18.80;98.50;;;;;;5035113;28;20095;-74
2022/07/22 04:36:23;;;;;;;8.45;2.72;;;18.80;98.60;;;;;;5034951;28;20028;-74
2022/07/22 04:38:49;;;;;;;4.53;2.20;;;18.70;98.70;;;;;;5034878;28;20033;-74
2022/07/22 04:41:15;;;;;;;4.80;1.80;;;18.80;98.90;;;;;;5034667;28;20084;-74
2022/07/22 04:43:41;;;;;;;7.95;2.30;;;18.90;99.00;;;;;;5034504;28;20509;-74
2022/07/22 04:46:07;;;;;;;5.85;1.83;;;19.00;98.90;;;;;;5034684;28;20038;-74
2022/07/22 04:48:33;;;;;;;6.30;1.45;;;19.00;98.70;;;;;;5034329;28;20025;-72
2022/07/22 04:51:00;;;;;;;4.95;1.25;;;19.00;98.40;;;;;;5034998;28;20057;-73
2022/07/22 04:53:26;;;;;;;4.60;1.38;;;19.00;98.20;;;;;;5035142;28;20021;-73
2022/07/22 04:55:52;;;;;;;6.25;1.35;;;18.90;97.70;;;;;;5034508;28;20022;-73
2022/07/22 04:58:17;;;;;;;3.92;1.02;;;18.70;97.90;;;;;;5034687;28;20036;-73
2022/07/22 05:00:43;;;;;;;6.57;1.10;;;18.60;98.30;;;;;;5034374;28;20419;-73
2022/07/22 05:03:10;;;;;;;7.80;1.20;;;18.60;98.50;;;;;;5034528;28;20073;-73
2022/07/22 05:05:35;;;;;;;5.88;1.27;;;18.50;98.30;;;;;;5034307;28;20053;-73
2022/07/22 05:08:01;;;;;;;6.15;0.93;;;18.60;98.30;;;;;;5034565;28;20033;-73
2022/07/22 05:10:27;;;;;;;6.32;1.48;;;18.60;98.10;;;;;;5034329;28;20032;-73
2022/07/22 05:12:53;;;;;;;5.30;1.20;;;18.60;98.20;;;;;;5033941;28;20091;-73
2022/07/22 05:15:19;;;;;;;5.18;1.42;;;18.50;98.30;;;;;;5034078;28;20053;-73
2022/07/22 05:17:44;;;;;;;4.18;1.02;;;18.50;98.30;;;;;;5034128;28;20021;-73
2022/07/22 05:20:11;;;;;;;5.47;1.15;;;18.50;98.50;;;;;;5033940;28;20033;-73
2022/07/22 05:22:36;;;;;;;5.35;1.65;;;18.50;98.60;;;;;;5033979;28;20457;-73
2022/07/22 05:25:02;;;;;;;6.95;1.33;;;18.60;98.50;;;;;;5034038;28;20029;-73
2022/07/22 05:27:28;;;;;;;3.15;0.82;;;18.70;98.30;;;;;;5033981;28;20056;-73
2022/07/22 05:29:53;;;;;;;5.38;0.82;;;18.70;98.10;;;;;;5034172;28;20037;-73
2022/07/22 05:32:19;;;;;;;3.13;1.00;;;18.80;98.10;;;;;;5033776;28;20088;-73
2022/07/22 05:34:45;;;;;;;3.13;0.77;;;18.80;98.10;;;;;;5034000;28;20033;-73
2022/07/22 05:37:10;;;;;;;5.38;0.70;;;18.80;98.00;;;;;;5033684;28;20041;-73
2022/07/22 05:39:36;;;;;;;3.60;0.80;;;18.80;98.00;;;;;;5033721;28;20037;-73
2022/07/22 05:42:01;;;;;;;3.88;0.90;;;18.90;98.00;;;;;;5033674;28;20437;-73
2022/07/22 05:44:27;;;;;;;5.18;0.77;;;19.00;97.90;;;;;;5033388;28;20140;-73
2022/07/22 05:46:52;;;;;;;4.97;0.82;;;19.10;97.70;;;;;;5033543;28;20033;-73
2022/07/22 05:49:19;;;;;;;9.38;1.73;;;19.10;97.30;;;;;;5033760;28;20036;-73
2022/07/22 05:51:45;;;;;;;5.50;1.23;;;19.00;96.50;;;;;;5033438;28;20025;-73
2022/07/22 05:54:10;;;;;;;6.07;0.80;;;18.80;96.80;;;;;;5033839;28;20018;-73
2022/07/22 05:56:36;;;;;;;5.78;1.05;;;18.80;97.20;;;;;;5033183;28;20378;-73
2022/07/22 05:59:02;;;;;;;1.77;0.47;;;18.80;97.10;;;;;;5032473;28;20037;-78
2022/07/22 06:01:27;;;;;;;2.50;0.70;;;18.90;98.40;;;;;;5032438;28;20520;-78
2022/07/22 06:03:53;;;;;;;6.70;0.80;;;19.30;98.80;;;;;;5033560;28;20030;-77
2022/07/22 06:06:19;;;;;;;4.15;0.60;;;19.80;97.80;;;;;;5031281;28;20108;-77
2022/07/22 06:08:45;;;;;;;3.28;0.63;;;20.30;96.70;;;;;;5031730;28;20041;-76
2022/07/22 06:11:10;;;;;;;4.65;0.60;;;20.70;95.50;;;;;;5031455;28;20021;-77
2022/07/22 06:13:37;;;;;;;2.78;0.40;;;21.00;94.80;;;;;;5032426;28;20025;-77
2022/07/22 06:16:03;;;;;;;4.18;0.55;;;21.30;94.00;;;;;;5031839;28;20048;-78
2022/07/22 06:18:29;;;;;;;3.85;0.50;;;21.50;93.20;;;;;;5031615;28;20048;-79
2022/07/22 06:20:55;;;;;;;4.22;0.75;;;21.60;92.60;;;;;;5031925;28;20041;-82
2022/07/22 06:23:23;;;;;;;2.70;0.45;;;21.60;92.60;;;;;;5031461;28;20028;-77
2022/07/22 06:25:48;;;;;;;5.97;0.47;;;21.70;92.20;;;;;;5031690;28;20025;-77
2022/07/22 06:28:14;;;;;;;5.43;0.50;;;21.80;92.30;;;;;;5032108;28;20032;-77
2022/07/22 06:30:40;;;;;;;3.55;0.60;;;22.00;91.90;;;;;;5031828;28;20468;-78
2022/07/22 06:33:07;;;;;;;2.25;0.35;;;22.20;91.60;;;;;;5031186;28;20366;-77
2022/07/22 06:35:33;;;;;;;5.00;0.40;;;22.30;91.30;;;;;;5031696;28;20040;-77
2022/07/22 06:37:58;;;;;;;2.25;0.47;;;22.40;91.00;;;;;;5030998;28;20021;-77
2022/07/22 06:40:24;;;;;;;5.80;0.60;;;22.40;90.90;;;;;;5031308;28;20035;-76
2022/07/22 06:42:49;;;;;;;6.93;0.60;;;22.50;90.70;;;;;;5031281;28;20030;-84
2022/07/22 06:45:15;;;;;;;3.97;0.85;;;22.50;90.50;;;;;;5029341;28;20037;-84
2022/07/22 06:47:41;;;;;;;2.95;0.35;;;22.50;90.30;;;;;;5031338;28;20036;-83
2022/07/22 06:50:07;;;;;;;2.80;0.50;;;22.60;90.20;;;;;;5031481;28;20091;-84
2022/07/22 06:52:40;;;;;;;2.10;0.43;;;22.60;90.00;;;;;;5031229;28;20029;-84
2022/07/22 06:55:06;;;;;;;;;;;22.60;89.70;;;;;;5032565;28;20064;-79
2022/07/22 06:57:31;;;;;;;3.60;0.43;;;22.70;89.50;;;;;;5030871;28;19940;-79
2022/07/22 06:59:57;;;;;;;3.92;0.45;;;22.60;89.20;;;;;;5031341;28;20037;-75
2022/07/22 07:02:22;;;;;;;4.22;0.40;;;22.60;90.00;;;;;;5032066;28;20491;-76
2022/07/22 07:04:48;;;;;;;3.00;0.40;;;22.50;89.70;;;;;;5043400;28;20433;-77
2022/07/22 07:07:14;;;;;;;5.40;0.60;;;22.20;89.20;;;;;;5036737;28;20023;-78
2022/07/22 07:09:39;;;;;;;3.22;0.40;;;22.00;90.00;;;;;;5053545;28;20491;-77
2022/07/22 07:12:06;;;;;;;4.88;0.70;;;21.80;90.10;;;;;;5056458;28;20021;-77
2022/07/22 07:14:31;;;;;;;2.97;0.60;;;21.60;90.20;;;;;;5056521;28;20028;-76
2022/07/22 07:16:57;;;;;;;3.97;0.68;;;21.30;90.60;;;;;;5056739;28;20392;-76
2022/07/22 07:19:23;;;;;;;3.95;0.50;;;21.30;91.10;;;;;;5052672;28;20411;-77
2022/07/22 07:21:48;;;;;;;3.88;0.50;;;21.10;91.50;;;;;;5036532;28;20025;-76
2022/07/22 07:24:14;;;;;;;3.70;0.50;;;21.00;91.70;;;;;;5036242;28;20441;-76
2022/07/22 07:26:39;;;;;;;9.10;0.70;;;21.00;91.80;;;;;;5035955;28;20018;-78
2022/07/22 07:29:05;;;;;;;3.80;0.80;;;21.00;91.50;;;;;;5035737;28;20032;-78
2022/07/22 07:31:30;;;;;;;6.97;0.82;;;21.10;91.80;;;;;;5034774;28;20049;-78
2022/07/22 07:33:56;;;;;;;4.22;0.77;;;21.10;91.90;;;;;;5034604;28;20029;-78
2022/07/22 07:36:22;;;;;;;6.68;0.80;;;21.10;92.00;;;;;;5034676;28;20017;-76
2022/07/22 07:38:48;;;;;;;3.40;0.93;;;21.00;91.90;;;;;;5035032;28;20042;-76
2022/07/22 07:41:14;;;;;;;4.93;0.63;;;20.70;92.10;;;;;;5034799;28;20108;-77
2022/07/22 07:43:40;;;;;;;3.05;0.80;;;20.60;92.40;;;;;;5034373;28;20041;-75
2022/07/22 07:46:08;;;;;;;8.35;0.70;;;20.30;92.60;;;;;;5034843;28;20036;-75
2022/07/22 07:48:33;;;;;;;6.50;0.77;;;20.20;92.90;;;;;;5034865;28;20060;-76
2022/07/22 07:50:59;;;;;;;6.70;1.58;;;20.20;93.10;;;;;;5034600;28;20053;-76
2022/07/22 07:53:25;;;;;;;4.53;0.88;;;20.20;93.20;;;;;;5034825;28;20795;-74
2022/07/22 07:55:51;;;;;;;5.70;0.93;;;20.20;93.40;;;;;;5034597;28;20370;-75
2022/07/22 07:58:17;;;;;;;6.07;0.70;;;20.10;93.70;;;;;;5033991;28;20133;-75
2022/07/22 08:00:43;;;;;;;5.45;0.77;;;20.00;93.80;;;;;;5034591;28;20108;-75
2022/07/22 08:03:10;;;;;;;3.50;0.80;;;19.90;94.20;;;;;;5034418;28;20097;-75
2022/07/22 08:05:35;;;;;;;6.57;1.35;;;19.90;94.40;;;;;;5033757;28;20082;-77
2022/07/22 08:08:02;;;;;;;6.40;0.88;;;19.90;94.60;;;;;;5033730;28;20029;-75
2022/07/22 08:10:28;;;;;;;4.05;0.70;;;19.70;94.50;;;;;;5034190;28;20033;-74
2022/07/22 08:12:55;;;;;;;9.43;1.13;;;19.60;94.80;;;;;;5034071;28;20028;-75
2022/07/22 08:15:21;;;;;;;5.22;1.05;;;19.70;95.20;;;;;;5033904;28;20112;-76
2022/07/22 08:17:47;;;;;;;5.07;0.85;;;19.60;95.00;;;;;;5034877;28;20433;-76
2022/07/22 08:20:12;;;;;;;4.88;0.95;;;19.50;95.10;;;;;;5034518;28;20033;-76
2022/07/22 08:22:38;;;;;;;7.25;1.23;;;19.60;95.50;;;;;;5034411;28;20417;-76
2022/07/22 08:25:04;;;;;;;7.45;1.10;;;19.60;95.70;;;;;;5035524;28;20464;-77
2022/07/22 08:27:29;;;;;;;4.00;0.90;;;19.50;95.50;;;;;;5035115;28;20022;-77
2022/07/22 08:29:55;;;;;;;9.18;1.00;;;19.50;95.30;;;;;;5034384;28;20022;-77
2022/07/22 08:32:21;;;;;;;10.88;0.98;;;19.40;95.10;;;;;;5035118;28;20461;-77
2022/07/22 08:34:47;;;;;;;4.32;0.90;;;19.50;95.50;;;;;;5035342;28;20533;-77
2022/07/22 08:37:12;;;;;;;9.00;1.35;;;19.40;95.30;;;;;;5035130;28;20032;-76
2022/07/22 08:39:38;;;;;;;7.68;0.90;;;19.50;95.40;;;;;;5035105;28;20120;-77
2022/07/22 08:42:04;;;;;;;5.90;1.20;;;19.70;95.30;;;;;;5034848;28;20017;-77
2022/07/22 08:44:33;;;;;;;4.60;0.70;;;19.60;95.20;;;;;;5034586;28;20049;-77
2022/07/22 08:47:00;;;;;;;4.07;0.90;;;19.60;95.10;;;;;;5034782;28;20075;-77
2022/07/22 08:49:26;;;;;;;4.43;0.90;;;19.60;95.50;;;;;;5034298;28;20021;-77
2022/07/22 08:51:52;;;;;;;5.30;1.40;;;19.70;95.90;;;;;;5034824;28;20021;-77
2022/07/22 08:54:18;;;;;;;8.65;1.20;;;19.80;95.40;;;;;;5034691;28;20091;-78
2022/07/22 08:56:51;;;;;;;6.45;1.02;;;19.80;95.40;;;;;;5034906;28;20469;-77
2022/07/22 08:59:16;;;;;;;10.05;1.48;;;19.90;95.20;;;;;;5034172;28;20025;-77
2022/07/22 09:02:18;;;;;;;5.78;1.00;;;19.80;95.00;;;;;;5034720;28;20423;-78
2022/07/22 09:04:53;;;;;;;9.60;1.23;;;19.80;95.30;;;;;;4992953;28;20033;-77
2022/07/22 09:07:29;;;;;;;5.70;1.25;;;19.70;94.90;;;;;;5028313;28;20033;-77
2022/07/22 09:09:55;;;;;;;6.38;1.25;;;19.50;95.10;;;;;;5034633;28;20047;-77
2022/07/22 09:12:22;;;;;;;3.42;0.77;;;19.40;95.40;;;;;;5034361;28;20022;-77
2022/07/22 09:14:50;;;;;;;4.50;0.85;;;19.50;95.50;;;;;;5033981;28;20040;-77
2022/07/22 09:17:29;;;;;;;7.03;1.05;;;19.60;95.60;;;;;;5034417;28;20034;-77
2022/07/22 09:19:59;;;;;;;6.13;0.75;;;19.60;95.20;;;;;;5034220;28;20034;-77
2022/07/22 09:22:43;;;;;;;8.38;1.33;;;19.60;95.10;;;;;;5033935;28;20461;-77
2022/07/22 09:25:22;;;;;;;4.30;0.73;;;19.60;94.90;;;;;;5033965;28;20449;-77
2022/07/22 09:27:50;;;;;;;5.68;0.70;;;19.50;95.00;;;;;;5034238;28;20072;-77
2022/07/22 09:30:24;;;;;;;4.30;0.70;;;19.50;94.90;;;;;;5034227;28;20056;-77
2022/07/22 09:32:51;;;;;;;9.07;1.23;;;19.60;95.30;;;;;;5033753;28;20029;-77
2022/07/22 09:35:19;;;;;;;4.05;1.02;;;19.60;94.60;;;;;;5033827;28;20028;-77
2022/07/22 09:38:05;;;;;;;6.60;1.10;;;19.60;94.20;;;;;;5034137;28;20029;-76
2022/07/22 09:40:35;;;;;;;3.63;0.60;;;19.60;94.40;;;;;;5033762;28;20064;-76
2022/07/22 09:43:04;;;;;;;4.97;0.60;;;19.80;94.30;;;;;;5033491;28;20033;-76
2022/07/22 09:45:31;;;;;;;4.43;0.50;;;20.00;93.90;;;;;;5033784;28;20036;-76
2022/07/22 09:47:58;;;;;;;3.05;0.40;;;20.20;93.80;;;;;;5033818;28;20036;-78
2022/07/22 09:50:30;;;;;;;5.72;0.45;;;20.30;92.60;;;;;;5033540;28;20026;-77
2022/07/22 09:52:57;;;;;;;3.93;0.53;;;20.30;92.00;;;;;;5033876;28;20052;-78
2022/07/22 09:55:25;;;;;;;5.18;0.45;;;20.40;92.30;;;;;;5033773;28;20018;-78
2022/07/22 09:57:52;;;;;;;3.50;0.50;;;20.50;91.20;;;;;;5033600;28;20057;-78
2022/07/22 10:00:22;;;;;;;6.28;0.60;;;20.50;91.30;;;;;;5033103;28;20047;-78
2022/07/22 10:02:56;;;;;;;2.53;0.47;;;20.60;91.30;;;;;;5033609;28;20079;-78
2022/07/22 10:05:24;;;;;;;4.35;0.50;;;20.70;90.70;;;;;;5033165;28;20104;-78
2022/07/22 10:07:50;;;;;;;3.20;0.50;;;20.60;90.20;;;;;;5033187;28;20033;-78
2022/07/22 10:10:18;;;;;;;4.68;0.93;;;20.60;91.30;;;;;;5033255;28;20049;-77
2022/07/22 10:12:48;;;;;;;3.20;0.50;;;20.60;90.90;;;;;;5033186;28;20025;-78
2022/07/22 10:15:14;;;;;;;2.90;0.47;;;20.50;90.40;;;;;;5033357;28;20039;-77
2022/07/22 10:17:45;;;;;;;2.72;0.50;;;20.50;91.10;;;;;;5033222;28;20025;-76
2022/07/22 10:20:11;;;;;;;3.10;0.50;;;20.70;91.30;;;;;;5033115;28;20033;-77
2022/07/22 10:22:41;;;;;;;4.18;0.55;;;20.80;91.00;;;;;;5033143;28;20401;-77
2022/07/22 10:25:08;;;;;;;2.15;0.50;;;21.00;90.70;;;;;;5033231;28;20424;-76
2022/07/22 10:27:56;;;;;;;3.83;0.40;;;21.10;90.60;;;;;;5033256;28;20032;-77
2022/07/22 10:30:27;;;;;;;3.00;0.22;;;21.20;89.20;;;;;;5033278;28;20022;-76
2022/07/22 10:33:02;;;;;;;2.60;0.52;;;21.30;89.20;;;;;;5033368;28;20432;-77
2022/07/22 10:35:28;;;;;;;1.50;0.30;;;21.40;89.90;;;;;;5033099;28;20022;-77
2022/07/22 10:37:56;;;;;;;2.38;0.40;;;21.50;89.80;;;;;;5033195;28;20109;-77
2022/07/22 10:40:49;;;;;;;4.18;0.50;;;21.70;87.90;;;;;;5033128;28;20033;-76
2022/07/22 10:43:16;;;;;;;4.03;0.47;;;21.90;87.80;;;;;;5032920;28;20057;-77
2022/07/22 10:45:45;;;;;;;3.38;0.82;;;22.00;85.80;;;;;;5035209;28;20038;-77
2022/07/22 10:48:24;;;;;;;4.25;0.60;;;21.80;85.90;;;;;;5036848;28;20025;-77
2022/07/22 10:51:04;;;;;;;3.03;0.40;;;21.50;86.10;;;;;;5037239;28;20022;-77
2022/07/22 10:53:45;;;;;;;2.05;0.35;;;21.40;86.00;;;;;;5037119;28;20420;-77
2022/07/22 10:56:33;;;;;;;5.00;0.50;;;21.50;86.70;;;;;;5036943;28;20345;-77
2022/07/22 10:59:16;;;;;;;2.35;0.43;;;21.70;85.60;;;;;;5036950;28;20038;-76
2022/07/22 11:01:46;;;;;;;3.35;0.30;;;21.70;84.30;;;;;;5036961;28;20030;-77
2022/07/22 11:04:12;;;;;;;3.40;0.45;;;21.70;84.30;;;;;;5036487;28;20036;-77
2022/07/22 11:06:38;;;;;;;5.75;0.60;;;21.70;84.80;;;;;;5036615;28;20018;-77
2022/07/22 11:09:07;;;;;;;4.03;0.40;;;21.60;85.70;;;;;;5036529;28;20029;-77
2022/07/22 11:11:46;;;;;;;5.32;0.43;;;21.60;85.90;;;;;;5036383;28;20026;-77
2022/07/22 11:14:28;;;;;;;2.15;0.50;;;21.70;86.00;;;;;;5036564;28;20396;-77
2022/07/22 11:16:59;;;;;;;3.90;0.70;;;21.80;85.00;;;;;;5036426;28;20105;-77
2022/07/22 11:19:29;;;;;;;2.28;0.40;;;21.90;83.40;;;;;;5036558;28;20079;-77
2022/07/22 11:22:07;;;;;;;5.05;0.80;;;22.00;83.10;;;;;;5036577;28;20026;-77
2022/07/22 11:24:34;;;;;;;4.32;0.57;;;22.10;83.90;;;;;;5036164;28;20028;-78
2022/07/22 11:27:00;;;;;;;3.90;0.35;;;22.10;83.20;;;;;;5036210;28;20025;-78
2022/07/22 11:29:50;;;;;;;5.53;0.50;;;22.10;82.20;;;;;;5036264;28;20030;-76
2022/07/22 11:32:16;;;;;;;2.85;0.38;;;22.20;83.00;;;;;;5036543;28;20021;-78
2022/07/22 11:34:45;;;;;;;3.35;0.40;;;22.30;82.70;;;;;;5036045;28;20025;-76
2022/07/22 11:37:12;;;;;;;5.97;0.70;;;22.40;79.90;;;;;;5036220;28;20393;-76
2022/07/22 11:39:38;;;;;;;2.03;0.40;;;22.40;81.00;;;;;;5035585;28;20570;-76
2022/07/22 11:42:04;;;;;;;2.30;0.40;;;22.50;82.40;;;;;;5036097;28;20034;-77
2022/07/22 11:44:33;;;;;;;1.50;0.40;;;22.70;81.60;;;;;;5035729;28;20052;-76
2022/07/22 11:47:00;;;;;;;5.45;1.08;;;22.90;81.40;;;;;;5036006;28;20037;-77
2022/07/22 11:49:28;;;;;;;3.72;0.45;;;23.00;78.50;;;;;;5035761;28;20033;-77
2022/07/22 11:51:54;;;;;;;4.72;0.50;;;22.70;80.10;;;;;;5035635;28;20101;-77
2022/07/22 11:54:20;;;;;;;2.70;0.85;;;22.70;77.90;;;;;;5034985;28;20179;-77
2022/07/22 11:56:46;;;;;;;1.85;0.45;;;22.60;78.90;;;;;;5035596;28;20436;-77
2022/07/22 11:59:14;;;;;;;2.70;0.80;;;22.60;79.10;;;;;;5035536;28;20033;-77
2022/07/22 12:01:40;;;;;;;3.85;0.60;;;22.60;78.80;;;;;;5035860;28;20033;-77
2022/07/22 12:04:08;;;;;;;2.15;0.32;;;22.60;78.20;;;;;;5035628;28;20119;-78
2022/07/22 12:06:38;;;;;;;2.47;0.50;;;22.60;78.70;;;;;;5035684;28;20022;-77
2022/07/22 12:09:08;;;;;;;3.33;0.40;;;22.60;78.50;;;;;;5035450;28;20469;-78
2022/07/22 12:11:36;;;;;;;4.70;0.90;;;22.60;78.60;;;;;;5035344;28;20362;-77
2022/07/22 12:14:10;;;;;;;2.00;0.40;;;22.60;79.60;;;;;;5035315;28;20025;-78
2022/07/22 12:16:36;;;;;;;2.88;0.55;;;22.60;78.10;;;;;;5035442;28;20033;-77
2022/07/22 12:19:05;;;;;;;4.93;0.40;;;22.70;77.90;;;;;;5035219;28;20544;-77
2022/07/22 12:21:33;;;;;;;1.42;0.30;;;23.00;79.00;;;;;;5035078;28;20025;-77
2022/07/22 12:24:05;;;;;;;3.83;0.70;;;23.20;77.10;;;;;;5035111;28;20044;-77
2022/07/22 12:26:44;;;;;;;2.97;0.40;;;23.20;77.50;;;;;;5035128;28;20553;-77
2022/07/22 12:29:17;;;;;;;2.78;0.50;;;23.40;78.30;;;;;;5035432;28;20038;-78
2022/07/22 12:31:48;;;;;;;3.90;0.50;;;23.50;79.90;;;;;;5034980;28;20025;-78
2022/07/22 12:34:14;;;;;;;5.30;0.63;;;23.50;78.50;;;;;;5035163;28;20022;-77
2022/07/22 12:36:45;;;;;;;2.72;0.68;;;23.20;78.10;;;;;;5035070;28;20053;-77
2022/07/22 12:39:16;;;;;;;3.40;0.50;;;22.90;77.80;;;;;;5035030;28;20042;-77
2022/07/22 12:41:50;;;;;;;4.50;0.40;;;22.70;78.20;;;;;;5035186;28;20029;-78
2022/07/22 12:44:17;;;;;;;3.17;0.50;;;22.80;78.90;;;;;;5034528;28;20053;-77
2022/07/22 12:46:52;;;;;;;2.65;0.57;;;23.00;78.80;;;;;;5034934;28;20139;-78
2022/07/22 12:49:19;;;;;;;2.75;0.70;;;23.20;75.80;;;;;;5035059;28;20036;-77